Time;durP1;ratioP1;P1;durP2;ratioP2;P2;SDS_P1;SDS_P2;PMS_P1;PMS_P2;Temp;Humidity;BMP_temperature;BMP_pressure;BME280_temperature;BME280_humidity;BME280_pressure;Samples;Min_cycle;Max_cycle;Signal;HPM_P1;HPM_P2
2023/06/03 00:01:53;;;;;;;8.27;4.28;;;;;;;12.55;70.56;101968.31;5027310;28;20050;-72
2023/06/03 00:04:42;;;;;;;9.90;4.10;;;;;;;12.54;70.91;101968.34;5028625;28;20943;-72
2023/06/03 00:07:28;;;;;;;10.77;4.20;;;;;;;12.53;71.20;101966.63;5021106;28;20050;-72
2023/06/03 00:10:14;;;;;;;13.23;4.47;;;;;;;12.54;71.19;101973.66;5027644;28;20038;-72
2023/06/03 00:13:00;;;;;;;10.82;4.10;;;;;;;12.55;70.93;101975.41;5026994;28;20125;-72
2023/06/03 00:15:45;;;;;;;8.43;4.07;;;;;;;12.54;71.03;101981.59;5025445;28;20054;-72
2023/06/03 00:18:31;;;;;;;10.63;3.80;;;;;;;12.50;71.14;101983.44;5026709;28;20053;-71
2023/06/03 00:21:17;;;;;;;9.50;4.28;;;;;;;12.49;71.36;101980.78;5027442;28;20046;-72
2023/06/03 00:24:02;;;;;;;8.20;4.03;;;;;;;12.49;71.40;101978.16;5006645;28;20055;-72
2023/06/03 00:26:50;;;;;;;9.57;3.90;;;;;;;12.48;71.49;101971.09;5006801;28;20074;-72
2023/06/03 00:29:36;;;;;;;7.07;3.72;;;;;;;12.51;71.60;101968.41;5009224;28;20079;-72
2023/06/03 00:32:22;;;;;;;9.13;4.15;;;;;;;12.50;71.37;101972.84;5005775;28;20133;-72
2023/06/03 00:35:08;;;;;;;8.60;4.13;;;;;;;12.49;71.62;101972.84;5006956;28;20905;-73
2023/06/03 00:37:54;;;;;;;7.68;3.67;;;;;;;12.47;71.82;101969.38;5018830;28;20547;-73
2023/06/03 00:40:39;;;;;;;13.85;4.05;;;;;;;12.50;72.09;101974.59;5017417;28;20089;-72
2023/06/03 00:43:25;;;;;;;8.85;3.85;;;;;;;12.52;71.75;101965.72;5008860;28;20051;-72
2023/06/03 00:46:11;;;;;;;6.65;3.78;;;;;;;12.50;71.72;101970.19;5006710;28;20161;-72
2023/06/03 00:48:56;;;;;;;11.20;3.97;;;;;;;12.46;71.82;101971.16;5007269;28;20058;-71
2023/06/03 00:51:42;;;;;;;6.68;3.95;;;;;;;12.43;71.72;101976.50;5019871;28;20055;-71
2023/06/03 00:54:28;;;;;;;10.85;4.20;;;;;;;12.40;71.90;101972.16;5008170;28;20061;-72
2023/06/03 00:57:15;;;;;;;7.45;3.88;;;;;;;12.37;72.47;101974.84;5019075;28;20511;-72
2023/06/03 01:00:01;;;;;;;11.23;3.80;;;;;;;12.36;72.33;101974.88;4996946;28;20058;-72
2023/06/03 01:02:46;;;;;;;8.35;4.10;;;;;;;12.36;72.67;101977.53;5005591;28;20058;-74
2023/06/03 01:05:32;;;;;;;9.35;4.25;;;;;;;12.34;72.68;101981.97;5003485;28;20054;-73
2023/06/03 01:08:33;;;;;;;8.55;4.10;;;;;;;12.36;72.58;101981.03;5004314;28;20133;-74
2023/06/03 01:11:35;;;;;;;10.63;4.05;;;;;;;12.35;72.83;101979.31;5006802;28;20038;-73
2023/06/03 01:14:34;;;;;;;9.75;4.25;;;;;;;12.33;72.79;101983.75;5016770;28;20054;-73
2023/06/03 01:17:24;;;;;;;9.52;4.18;;;;;;;12.27;72.69;101990.03;5016310;28;20859;-73
2023/06/03 01:20:12;;;;;;;11.27;4.10;;;;;;;12.23;73.24;101983.03;5006922;28;20055;-75
2023/06/03 01:23:28;;;;;;;7.25;4.13;;;;;;;12.26;73.38;101977.72;5022858;28;20506;-74
2023/06/03 01:26:16;;;;;;;9.77;4.63;;;;;;;12.29;73.42;101976.75;5027373;28;20909;-73
2023/06/03 01:29:02;;;;;;;9.65;4.35;;;;;;;12.32;73.82;101983.75;5023542;28;20042;-73
2023/06/03 01:31:48;;;;;;;7.70;4.07;;;;;;;12.32;73.64;101976.72;5011209;28;20104;-73
2023/06/03 01:34:33;;;;;;;7.28;3.83;;;;;;;12.33;73.65;101980.22;5026003;28;20224;-73
2023/06/03 01:37:20;;;;;;;8.35;4.07;;;;;;;12.33;73.66;101982.88;5022329;28;20038;-73
2023/06/03 01:40:08;;;;;;;6.32;3.95;;;;;;;12.35;73.71;101981.06;5009789;28;20117;-73
2023/06/03 01:42:55;;;;;;;8.40;3.90;;;;;;;12.35;73.64;101981.06;5010190;28;20129;-74
2023/06/03 01:45:41;;;;;;;9.10;4.43;;;;;;;12.36;73.65;101981.03;5009964;28;20394;-74
2023/06/03 01:48:27;;;;;;;8.63;4.15;;;;;;;12.38;73.65;101987.16;5022192;28;20057;-73
2023/06/03 01:51:12;;;;;;;9.35;4.25;;;;;;;12.40;73.28;101980.06;5010845;28;20082;-74
2023/06/03 01:53:57;;;;;;;6.28;3.90;;;;;;;12.40;73.35;101985.38;5027286;28;20038;-73
2023/06/03 01:56:43;;;;;;;7.07;3.97;;;;;;;12.43;73.30;101980.03;5026530;28;20057;-73
2023/06/03 01:59:28;;;;;;;6.32;3.75;;;;;;;12.42;73.10;101980.94;5023896;28;20099;-74
2023/06/03 02:02:14;;;;;;;7.88;3.70;;;;;;;12.42;73.19;101985.31;5019578;28;20375;-74
2023/06/03 02:05:00;;;;;;;9.13;3.72;;;;;;;12.40;72.92;101977.44;5011508;28;20141;-74
2023/06/03 02:07:46;;;;;;;9.13;3.80;;;;;;;12.42;73.03;101977.38;5012039;28;20772;-74
2023/06/03 02:10:31;;;;;;;6.03;3.70;;;;;;;12.42;72.82;101977.38;4994814;28;20061;-73
2023/06/03 02:13:17;;;;;;;9.88;4.07;;;;;;;12.41;73.04;101976.53;5026210;28;20046;-73
2023/06/03 02:16:03;;;;;;;6.65;3.67;;;;;;;12.40;72.83;101969.50;5026377;28;20089;-73
2023/06/03 02:18:48;;;;;;;6.75;4.03;;;;;;;12.37;72.77;101966.91;5022211;28;20046;-73
2023/06/03 02:21:34;;;;;;;5.97;3.72;;;;;;;12.35;72.62;101968.75;4990643;28;20050;-74
2023/06/03 02:24:19;;;;;;;5.38;3.47;;;;;;;12.31;72.77;101963.53;5025939;28;20050;-73
2023/06/03 02:27:06;;;;;;;6.53;3.75;;;;;;;12.26;73.02;101967.13;4998698;28;20038;-73
2023/06/03 02:29:52;;;;;;;7.18;3.70;;;;;;;12.25;72.77;101972.47;5009025;28;20133;-73
2023/06/03 02:32:37;;;;;;;9.27;4.00;;;;;;;12.20;72.87;101969.03;5010387;28;20101;-71
2023/06/03 02:35:23;;;;;;;8.70;3.97;;;;;;;12.20;72.81;101972.56;5011773;28;20050;-71
2023/06/03 02:38:09;;;;;;;7.35;3.95;;;;;;;12.13;72.82;101965.63;5010955;28;20906;-72
2023/06/03 02:40:54;;;;;;;7.00;3.83;;;;;;;12.11;73.30;101973.59;4998655;28;20038;-71
2023/06/03 02:43:41;;;;;;;7.15;4.00;;;;;;;12.10;72.95;101970.97;5019972;28;20041;-71
2023/06/03 02:46:27;;;;;;;7.40;3.47;;;;;;;12.06;72.85;101978.06;5023028;28;20427;-72
2023/06/03 02:49:14;;;;;;;8.23;3.70;;;;;;;12.02;73.00;101971.13;5024804;28;20582;-73
2023/06/03 02:51:59;;;;;;;5.85;4.00;;;;;;;11.98;72.84;101974.69;5000650;28;20046;-73
2023/06/03 02:54:45;;;;;;;5.93;3.63;;;;;;;11.92;73.27;101974.78;5010604;28;20037;-72
2023/06/03 02:57:30;;;;;;;9.20;3.92;;;;;;;11.86;73.18;101978.41;5015120;28;20050;-71
2023/06/03 03:00:16;;;;;;;8.95;3.90;;;;;;;11.82;73.64;101974.06;5030046;28;21073;-71
2023/06/03 03:03:01;;;;;;;8.10;4.00;;;;;;;11.79;73.42;101977.63;5029420;28;20050;-71
2023/06/03 03:05:48;;;;;;;5.00;3.33;;;;;;;11.73;73.71;101976.88;5029349;28;20128;-74
2023/06/03 03:08:33;;;;;;;7.10;3.95;;;;;;;11.69;73.71;101972.56;5012267;28;20050;-73
2023/06/03 03:11:20;;;;;;;6.45;4.20;;;;;;;11.67;73.72;101979.63;5015180;28;20046;-73
2023/06/03 03:14:06;;;;;;;7.50;3.78;;;;;;;11.59;73.74;101982.38;5026188;28;20493;-73
2023/06/03 03:16:54;;;;;;;8.18;3.80;;;;;;;11.53;74.50;101985.13;5026216;28;20481;-73
2023/06/03 03:19:40;;;;;;;10.05;4.43;;;;;;;11.53;74.19;101990.41;5014655;28;20126;-74
2023/06/03 03:22:27;;;;;;;10.45;4.10;;;;;;;11.47;74.45;101986.97;5004873;28;20137;-73
2023/06/03 03:25:13;;;;;;;7.43;4.15;;;;;;;11.41;73.99;101989.72;5010599;28;20042;-73
2023/06/03 03:28:00;;;;;;;8.73;3.83;;;;;;;11.37;74.30;101987.16;5010132;28;20050;-73
2023/06/03 03:30:49;;;;;;;9.48;3.80;;;;;;;11.34;74.31;101982.78;5012314;28;20046;-73
2023/06/03 03:33:34;;;;;;;8.48;4.00;;;;;;;11.34;74.33;101983.66;5004767;28;20049;-72
2023/06/03 03:36:24;;;;;;;8.02;3.78;;;;;;;11.30;74.30;101986.34;5010156;28;20089;-72
2023/06/03 03:39:16;;;;;;;7.68;4.03;;;;;;;11.24;74.51;101986.47;5002169;28;20129;-72
2023/06/03 03:42:08;;;;;;;6.15;3.63;;;;;;;11.22;74.66;101990.88;5025845;28;20233;-73
2023/06/03 03:44:59;;;;;;;7.88;4.18;;;;;;;11.25;74.79;101988.19;5014944;28;20046;-73
2023/06/03 03:47:50;;;;;;;8.27;3.90;;;;;;;11.29;74.31;101993.38;5014646;28;20041;-73
2023/06/03 03:50:48;;;;;;;6.45;3.58;;;;;;;11.28;74.33;101996.06;5022401;28;20038;-73
2023/06/03 03:53:50;;;;;;;6.55;3.67;;;;;;;11.32;74.36;102001.28;4993771;28;20050;-73
2023/06/03 03:56:41;;;;;;;5.35;3.60;;;;;;;11.41;73.74;101999.38;5023442;28;20046;-73
2023/06/03 03:59:27;;;;;;;7.97;3.78;;;;;;;11.40;73.33;102003.81;5028076;28;20097;-72
2023/06/03 04:02:14;;;;;;;5.65;2.97;;;;;;;11.40;73.20;102001.16;5024844;28;20092;-73
2023/06/03 04:05:00;;;;;;;6.22;3.60;;;;;;;11.43;72.86;101998.50;5003672;28;20053;-72
2023/06/03 04:07:46;;;;;;;8.57;3.58;;;;;;;11.43;72.69;102005.53;5029556;28;20054;-72
2023/06/03 04:10:33;;;;;;;7.85;3.70;;;;;;;11.46;72.60;102013.41;5027319;28;20046;-72
2023/06/03 04:13:20;;;;;;;5.88;3.20;;;;;;;11.55;72.03;102013.25;5027059;28;20058;-72
2023/06/03 04:16:12;;;;;;;5.45;3.00;;;;;;;11.69;71.32;102020.09;5015348;28;20632;-72
2023/06/03 04:19:03;;;;;;;5.43;3.22;;;;;;;11.67;70.64;102014.81;5031138;28;20047;-71
2023/06/03 04:21:52;;;;;;;5.50;3.15;;;;;;;11.66;70.75;102023.63;5034288;28;20042;-72
2023/06/03 04:24:42;;;;;;;6.43;3.17;;;;;;;11.69;70.61;102018.31;5022348;28;20517;-72
2023/06/03 04:27:37;;;;;;;7.40;2.85;;;;;;;11.74;70.49;102015.59;5019792;28;20058;-72
2023/06/03 04:30:23;;;;;;;6.53;2.60;;;;;;;11.81;69.66;102018.13;5030861;28;20042;-73
2023/06/03 04:33:09;;;;;;;7.00;3.00;;;;;;;11.86;69.48;102014.50;5032451;28;20089;-73
2023/06/03 04:35:54;;;;;;;3.75;2.38;;;;;;;11.92;69.12;102019.72;5030144;28;20128;-72
2023/06/03 04:38:41;;;;;;;5.85;2.47;;;;;;;12.10;68.81;102010.63;5017185;28;21744;-72
2023/06/03 04:41:27;;;;;;;4.35;2.60;;;;;;;12.37;67.31;102011.88;5009000;28;20068;-72
2023/06/03 04:44:22;;;;;;;7.22;2.53;;;;;;;12.51;66.34;102005.44;5021520;28;20593;-72
2023/06/03 04:47:12;;;;;;;4.05;2.40;;;;;;;13.07;64.62;102006.94;5020559;28;20042;-72
2023/06/03 04:49:58;;;;;;;5.50;2.30;;;;;;;13.65;62.77;102010.91;5032164;28;20557;-72
2023/06/03 04:52:43;;;;;;;4.43;2.22;;;;;;;13.47;61.75;102017.50;5027666;28;20054;-73
2023/06/03 04:55:31;;;;;;;5.15;2.45;;;;;;;13.19;62.58;102015.47;5031445;28;20625;-73
2023/06/03 04:58:18;;;;;;;5.20;2.35;;;;;;;13.11;63.66;102011.25;5018240;28;20050;-73
2023/06/03 05:01:08;;;;;;;5.07;2.10;;;;;;;13.24;61.49;102014.47;5014513;28;20049;-74
2023/06/03 05:03:55;;;;;;;3.45;2.13;;;;;;;13.18;61.79;102013.72;5015583;28;20518;-74
2023/06/03 05:06:42;;;;;;;4.95;2.00;;;;;;;13.18;61.26;102012.84;5007886;28;20041;-74
2023/06/03 05:09:28;;;;;;;4.00;2.22;;;;;;;13.45;60.39;102019.31;5020721;28;20046;-74
2023/06/03 05:12:14;;;;;;;4.82;1.98;;;;;;;13.64;60.81;102013.56;5020156;28;20046;-74
2023/06/03 05:15:00;;;;;;;2.97;2.20;;;;;;;13.72;59.64;102016.03;5019386;28;20053;-74
2023/06/03 05:17:45;;;;;;;4.78;1.90;;;;;;;14.56;57.84;102017.34;5021722;28;20058;-72
2023/06/03 05:20:32;;;;;;;4.72;2.00;;;;;;;16.59;50.95;102010.88;5026504;28;20045;-72
2023/06/03 05:23:17;;;;;;;2.97;1.83;;;;;;;15.96;52.53;102006.00;5034627;28;20046;-71
2023/06/03 05:26:04;;;;;;;6.55;2.10;;;;;;;16.45;52.01;102008.72;5020007;28;20049;-71
2023/06/03 05:28:50;;;;;;;3.55;1.77;;;;;;;19.26;46.29;102008.53;5012240;28;20050;-72
2023/06/03 05:31:35;;;;;;;3.25;1.60;;;;;;;21.38;41.86;102005.44;5007511;28;20042;-72
2023/06/03 05:34:21;;;;;;;3.35;1.60;;;;;;;22.94;37.98;102010.41;5018400;28;20058;-72
2023/06/03 05:37:06;;;;;;;4.30;1.75;;;;;;;24.03;35.92;102002.31;5020504;28;20833;-75
2023/06/03 05:39:52;;;;;;;4.07;1.67;;;;;;;24.93;34.27;101997.81;5016809;28;20054;-75
2023/06/03 05:42:37;;;;;;;3.88;1.48;;;;;;;25.58;31.60;101998.44;5016309;28;20093;-75
2023/06/03 05:45:23;;;;;;;3.33;1.48;;;;;;;26.04;30.74;101996.72;5022760;28;20055;-74
2023/06/03 05:48:10;;;;;;;3.45;1.60;;;;;;;26.16;29.79;101995.78;5018190;28;20074;-73
2023/06/03 05:50:56;;;;;;;3.10;1.60;;;;;;;26.47;29.15;101997.88;5012704;28;20106;-73
2023/06/03 05:53:45;;;;;;;5.10;1.30;;;;;;;26.80;28.36;101997.03;5026156;28;20057;-74
2023/06/03 05:56:34;;;;;;;6.47;1.73;;;;;;;27.01;28.25;102004.38;5011071;28;20862;-73
2023/06/03 05:59:21;;;;;;;3.83;1.55;;;;;;;27.35;28.13;102004.28;5012532;28;20981;-74
2023/06/03 06:02:06;;;;;;;3.08;1.30;;;;;;;27.86;27.14;101996.44;5012859;28;20046;-72
2023/06/03 06:04:52;;;;;;;3.15;1.45;;;;;;;27.93;25.48;102000.31;5012606;28;20341;-75
2023/06/03 06:07:37;;;;;;;2.53;1.27;;;;;;;27.76;25.63;101999.06;5015786;28;20507;-74
2023/06/03 06:10:23;;;;;;;2.42;1.15;;;;;;;27.72;26.08;101990.34;5021579;28;20168;-72
2023/06/03 06:13:08;;;;;;;3.22;1.20;;;;;;;27.27;25.56;101991.38;5021113;28;20054;-71
2023/06/03 06:16:00;;;;;;;3.92;1.40;;;;;;;24.75;28.30;101994.63;5002330;28;20869;-69
2023/06/03 06:18:47;;;;;;;3.72;1.25;;;;;;;21.70;33.56;102000.06;5022102;28;20050;-84
2023/06/03 06:21:32;;;;;;;3.22;1.30;;;;;;;19.94;36.40;101997.13;5012621;28;20989;-71
2023/06/03 06:24:18;;;;;;;1.98;1.42;;;;;;;18.83;38.16;102013.19;5022121;28;20062;-71
2023/06/03 06:27:07;;;;;;;3.85;1.40;;;;;;;17.95;39.94;102010.84;5008233;28;20057;-71
2023/06/03 06:29:53;;;;;;;3.60;1.10;;;;;;;17.40;41.39;102016.66;5022695;28;20674;-71
2023/06/03 06:32:52;;;;;;;3.47;1.30;;;;;;;17.04;42.28;102019.84;5008104;28;20046;-71
2023/06/03 06:35:43;;;;;;;2.90;1.27;;;;;;;16.73;43.10;102026.31;5009472;28;20046;-71
2023/06/03 06:38:35;;;;;;;1.98;1.10;;;;;;;16.56;43.75;102019.84;5010175;28;20056;-71
2023/06/03 06:41:22;;;;;;;7.38;1.55;;;;;;;16.51;44.13;102023.59;4994912;28;20054;-71
2023/06/03 06:44:07;;;;;;;3.83;1.30;;;;;;;16.52;43.50;102022.66;5010824;28;20137;-71
2023/06/03 06:46:56;;;;;;;1.92;1.10;;;;;;;16.43;43.47;102026.53;4996629;28;20073;-71
2023/06/03 06:49:42;;;;;;;2.17;1.08;;;;;;;16.37;44.15;102024.94;5009773;28;20050;-71
2023/06/03 06:52:29;;;;;;;2.63;1.33;;;;;;;16.35;44.19;102021.47;4997548;28;20528;-71
2023/06/03 06:55:47;;;;;;;2.25;1.17;;;;;;;16.44;44.12;102015.81;4992407;28;20172;-71
2023/06/03 06:58:38;;;;;;;2.72;1.10;;;;;;;16.58;44.00;102017.09;5019286;28;20549;-71
2023/06/03 07:01:28;;;;;;;3.08;1.17;;;;;;;16.72;43.28;102024.56;5003712;28;20042;-71
2023/06/03 07:04:15;;;;;;;2.33;1.20;;;;;;;16.79;43.21;102019.88;5004988;28;20077;-71
2023/06/03 07:07:00;;;;;;;5.50;1.08;;;;;;;16.90;43.21;102023.03;5021574;28;20541;-71
2023/06/03 07:09:46;;;;;;;3.50;1.15;;;;;;;17.09;42.92;102017.91;4998831;28;20526;-72
2023/06/03 07:12:36;;;;;;;3.28;1.10;;;;;;;17.27;41.74;102023.41;4996254;28;20049;-71
2023/06/03 07:15:23;;;;;;;2.20;0.88;;;;;;;17.28;41.62;102023.34;5011554;28;20521;-71
2023/06/03 07:18:09;;;;;;;2.83;1.00;;;;;;;17.29;40.76;102022.41;5023706;28;20112;-71
2023/06/03 07:20:56;;;;;;;3.28;1.00;;;;;;;17.33;40.77;102020.50;5018591;28;20046;-71
2023/06/03 07:23:47;;;;;;;5.00;0.90;;;;;;;17.45;40.35;102021.81;5006897;28;20558;-71
2023/06/03 07:26:34;;;;;;;2.78;1.23;;;;;;;17.51;39.66;102016.22;5025132;28;20561;-71
2023/06/03 07:29:20;;;;;;;4.63;1.17;;;;;;;17.62;40.05;102021.09;5006433;28;20046;-71
2023/06/03 07:32:07;;;;;;;2.60;1.05;;;;;;;17.74;39.30;102019.75;5010927;28;20046;-71
2023/06/03 07:34:54;;;;;;;2.22;1.00;;;;;;;17.84;38.18;102023.75;5009658;28;20093;-71
2023/06/03 07:37:39;;;;;;;3.45;1.20;;;;;;;17.82;38.97;102018.47;5008407;28;20042;-71
2023/06/03 07:40:39;;;;;;;2.70;0.90;;;;;;;18.04;37.11;102022.94;5008665;28;20054;-71
2023/06/03 07:43:27;;;;;;;1.55;0.82;;;;;;;18.07;37.48;102009.47;5000293;28;20043;-71
2023/06/03 07:46:13;;;;;;;3.55;1.05;;;;;;;18.18;38.36;102021.47;5023097;28;20037;-71
2023/06/03 07:49:03;;;;;;;1.58;0.75;;;;;;;18.38;37.16;102020.56;5021672;28;20049;-71
2023/06/03 07:51:51;;;;;;;2.47;0.90;;;;;;;18.35;37.18;102020.72;5022976;28;20057;-71
2023/06/03 07:54:36;;;;;;;2.40;0.90;;;;;;;18.47;37.89;102014.81;5025842;28;20770;-72
2023/06/03 07:57:22;;;;;;;3.63;1.00;;;;;;;18.63;36.64;102014.97;5026810;28;20053;-71
2023/06/03 08:00:08;;;;;;;2.47;0.82;;;;;;;18.80;35.76;102024.91;5027998;28;20053;-71
2023/06/03 08:02:56;;;;;;;7.03;1.02;;;;;;;18.82;35.20;102028.38;5014507;28;20042;-71
2023/06/03 08:05:42;;;;;;;3.45;0.85;;;;;;;18.84;35.96;102026.50;5023974;28;20050;-71
2023/06/03 08:08:33;;;;;;;3.22;0.90;;;;;;;18.96;35.80;102025.09;5027395;28;20038;-72
2023/06/03 08:11:19;;;;;;;2.35;1.00;;;;;;;19.13;35.10;102026.09;5028189;28;20121;-71
2023/06/03 08:14:04;;;;;;;2.80;0.93;;;;;;;19.22;34.13;102028.34;5012786;28;20053;-74
2023/06/03 08:16:51;;;;;;;4.70;0.82;;;;;;;19.32;32.95;102029.63;5014759;28;20144;-74
2023/06/03 08:19:37;;;;;;;3.50;1.02;;;;;;;19.36;32.73;102027.66;5018088;28;20047;-75
2023/06/03 08:22:44;;;;;;;3.22;0.90;;;;;;;19.45;32.39;102016.50;5025773;28;20510;-75
2023/06/03 08:25:31;;;;;;;2.13;0.93;;;;;;;19.60;31.29;102028.25;5004571;28;20168;-74
2023/06/03 08:28:16;;;;;;;0.90;0.60;;;;;;;19.52;30.98;102017.94;5027750;28;20046;-74
2023/06/03 08:31:01;;;;;;;1.00;0.60;;;;;;;19.61;30.89;102023.75;5036489;28;20046;-74
2023/06/03 08:33:47;;;;;;;4.72;0.90;;;;;;;19.68;30.46;102017.19;5028195;28;20050;-75
2023/06/03 08:36:32;;;;;;;2.88;0.80;;;;;;;19.66;31.40;102025.25;5027080;28;20053;-75
2023/06/03 08:39:18;;;;;;;1.10;0.70;;;;;;;19.80;30.02;102013.00;5013004;28;20046;-74
2023/06/03 08:42:07;;;;;;;1.58;0.80;;;;;;;19.82;30.32;102020.00;5011070;28;20522;-74
2023/06/03 08:45:07;;;;;;;1.60;0.60;;;;;;;19.84;30.34;102023.47;5021960;28;20782;-75
2023/06/03 08:48:25;;;;;;;2.25;0.68;;;;;;;19.88;29.48;102018.00;5022882;28;20050;-75
2023/06/03 08:51:15;;;;;;;1.55;0.75;;;;;;;19.82;30.21;102001.28;5014705;28;20061;-75
2023/06/03 08:54:00;;;;;;;5.55;0.70;;;;;;;19.90;30.31;102010.75;5013157;28;20045;-75
2023/06/03 08:56:57;;;;;;;3.20;0.60;;;;;;;19.94;29.35;101996.28;5026432;28;20058;-74
2023/06/03 08:59:43;;;;;;;3.45;0.82;;;;;;;19.93;30.30;101998.09;5011288;28;20038;-75
2023/06/03 09:02:30;;;;;;;3.55;0.60;;;;;;;20.12;29.73;101986.44;5027909;28;20720;-75
2023/06/03 09:05:16;;;;;;;3.70;0.80;;;;;;;20.23;29.41;102002.78;5027142;28;20137;-75
2023/06/03 09:08:02;;;;;;;2.92;0.63;;;;;;;20.19;29.54;101995.88;5009804;28;20038;-75
2023/06/03 09:10:48;;;;;;;1.25;0.60;;;;;;;20.27;28.96;101995.47;5023118;28;20038;-75
2023/06/03 09:13:34;;;;;;;3.40;0.98;;;;;;;20.33;28.43;101995.13;5026870;28;20050;-75
2023/06/03 09:16:20;;;;;;;1.80;0.50;;;;;;;20.37;29.12;101988.66;5026671;28;20058;-75
2023/06/03 09:19:06;;;;;;;1.35;0.65;;;;;;;20.56;27.57;101998.38;5015993;28;20046;-74
2023/06/03 09:21:56;;;;;;;0.90;0.35;;;;;;;20.58;26.13;102002.69;5028138;28;20128;-75
2023/06/03 09:24:41;;;;;;;1.08;0.45;;;;;;;20.61;25.39;102002.53;5013770;28;20046;-75
2023/06/03 09:27:26;;;;;;;2.72;0.50;;;;;;;20.55;25.16;101999.31;5026318;28;20050;-75
2023/06/03 09:30:12;;;;;;;1.27;0.50;;;;;;;20.43;25.63;101991.00;5031612;28;20081;-75
2023/06/03 09:32:57;;;;;;;1.80;0.65;;;;;;;20.47;26.79;101989.91;5026153;28;20135;-74
2023/06/03 09:35:42;;;;;;;3.28;0.60;;;;;;;20.61;27.39;101988.25;5027379;28;20108;-75
2023/06/03 09:38:55;;;;;;;3.35;0.60;;;;;;;20.83;26.21;101997.84;5025575;28;20157;-74
2023/06/03 09:41:40;;;;;;;3.95;0.55;;;;;;;20.90;25.84;101994.75;5025235;28;20579;-74
2023/06/03 09:44:40;;;;;;;3.50;0.60;;;;;;;21.00;26.01;101996.91;5027438;28;20046;-75
2023/06/03 09:47:39;;;;;;;4.95;0.57;;;;;;;21.17;25.83;101995.94;5026183;28;20494;-75
2023/06/03 09:50:32;;;;;;;1.48;0.60;;;;;;;21.29;25.13;101991.69;5025148;28;20050;-75
2023/06/03 09:53:19;;;;;;;1.45;0.65;;;;;;;21.28;25.33;101992.63;5021886;28;20046;-74
2023/06/03 09:56:26;;;;;;;1.30;0.50;;;;;;;21.33;25.56;101998.63;5027003;28;20606;-74
2023/06/03 09:59:23;;;;;;;1.88;0.60;;;;;;;21.31;24.79;101995.16;5011258;28;20172;-75
2023/06/03 10:02:11;;;;;;;1.83;0.70;;;;;;;21.27;25.07;102002.50;5010584;28;20049;-75
2023/06/03 10:04:58;;;;;;;1.85;0.50;;;;;;;21.36;25.32;102001.13;5024585;28;20133;-74
2023/06/03 10:07:47;;;;;;;12.30;1.00;;;;;;;21.28;25.97;101990.84;5002321;28;20038;-75
2023/06/03 10:10:34;;;;;;;2.72;0.60;;;;;;;21.39;25.59;101998.25;5013019;28;20042;-76
2023/06/03 10:13:21;;;;;;;1.20;0.60;;;;;;;21.52;24.99;101996.59;5011515;28;20046;-75
2023/06/03 10:16:11;;;;;;;2.47;0.57;;;;;;;21.62;26.07;101993.41;5012248;28;20224;-75
2023/06/03 10:18:58;;;;;;;3.72;0.70;;;;;;;21.83;25.52;101996.59;5026392;28;20054;-75
2023/06/03 10:21:44;;;;;;;1.08;0.70;;;;;;;21.86;25.04;102002.69;5010987;28;20053;-75
2023/06/03 10:24:31;;;;;;;1.73;0.60;;;;;;;21.93;24.69;102002.31;5009849;28;20061;-75
2023/06/03 10:27:18;;;;;;;4.20;1.00;;;;;;;21.71;25.39;101999.09;5016229;28;20062;-75
2023/06/03 10:30:05;;;;;;;2.97;0.70;;;;;;;21.66;25.68;101997.63;5018182;28;20049;-74
2023/06/03 10:32:57;;;;;;;1.65;0.60;;;;;;;21.70;25.94;101992.00;5016470;28;20050;-75
2023/06/03 10:35:43;;;;;;;1.83;0.57;;;;;;;21.83;25.22;101992.13;5017192;28;20064;-75
2023/06/03 10:38:32;;;;;;;4.35;0.75;;;;;;;21.76;25.17;101980.03;5025781;28;20038;-74
2023/06/03 10:41:20;;;;;;;7.60;0.85;;;;;;;21.75;25.42;101990.84;5021012;28;20473;-75
2023/06/03 10:44:06;;;;;;;2.95;0.60;;;;;;;21.81;25.98;101985.97;5024751;28;20109;-74
2023/06/03 10:47:02;;;;;;;2.08;0.60;;;;;;;21.94;25.22;101987.94;5013713;28;20085;-75
2023/06/03 10:49:58;;;;;;;1.83;0.52;;;;;;;21.93;26.11;101984.38;5026813;28;20045;-74
2023/06/03 10:53:02;;;;;;;1.95;0.70;;;;;;;22.20;25.28;101986.34;5010143;28;20053;-74
2023/06/03 10:56:21;;;;;;;2.45;0.63;;;;;;;22.06;25.27;101989.88;5026591;28;20057;-74
2023/06/03 10:59:13;;;;;;;7.05;0.88;;;;;;;22.16;25.69;101984.78;5018389;28;20514;-75
2023/06/03 11:02:01;;;;;;;2.38;0.80;;;;;;;22.38;25.29;101994.19;5021391;28;20576;-74
2023/06/03 11:04:47;;;;;;;1.85;0.80;;;;;;;22.27;25.68;101985.00;4998080;28;20046;-73
2023/06/03 11:07:35;;;;;;;2.83;0.65;;;;;;;22.16;25.80;101977.59;5024400;28;20589;-74
2023/06/03 11:10:36;;;;;;;1.77;0.70;;;;;;;22.22;26.50;101983.53;5012392;28;20514;-75
2023/06/03 11:13:44;;;;;;;1.52;0.85;;;;;;;22.43;26.50;101974.19;5010619;28;20558;-75
2023/06/03 11:16:44;;;;;;;1.70;0.82;;;;;;;22.55;25.95;101991.34;5028367;28;20046;-75
2023/06/03 11:19:38;;;;;;;2.35;0.80;;;;;;;22.61;25.64;101990.97;5015274;28;20055;-75
2023/06/03 11:22:29;;;;;;;3.05;0.80;;;;;;;22.75;25.54;101992.78;5027821;28;20046;-74
2023/06/03 11:25:28;;;;;;;2.33;0.73;;;;;;;22.71;26.10;101991.25;5028780;28;20526;-74
2023/06/03 11:28:36;;;;;;;1.55;0.60;;;;;;;22.73;24.82;101986.63;5024097;28;20037;-74
2023/06/03 11:31:25;;;;;;;35.92;2.83;;;;;;;22.71;25.67;101988.53;5038239;28;20042;-74
2023/06/03 11:34:27;;;;;;;1.13;0.57;;;;;;;22.83;25.12;101994.97;5029072;28;20042;-73
2023/06/03 11:37:19;;;;;;;2.10;0.88;;;;;;;22.74;25.60;101982.13;5017019;28;20498;-74
2023/06/03 11:40:07;;;;;;;4.40;0.90;;;;;;;22.88;24.83;101989.31;5005106;28;20046;-75
2023/06/03 11:42:55;;;;;;;3.08;0.80;;;;;;;22.88;24.72;101978.56;5019133;28;20038;-75
2023/06/03 11:45:44;;;;;;;4.05;0.80;;;;;;;22.81;24.69;101986.16;5014340;28;20128;-75
2023/06/03 11:48:37;;;;;;;1.15;0.80;;;;;;;22.85;24.88;101984.97;5028051;28;20557;-75
2023/06/03 11:51:27;;;;;;;2.13;0.93;;;;;;;22.79;25.58;101978.16;5000886;28;20550;-75
2023/06/03 11:54:13;;;;;;;3.25;0.60;;;;;;;22.94;25.77;101970.06;4997232;28;20049;-76
2023/06/03 11:57:02;;;;;;;3.15;0.73;;;;;;;23.18;24.83;101966.75;5027392;28;20046;-75
2023/06/03 11:59:51;;;;;;;4.55;0.80;;;;;;;23.08;25.28;101959.28;5002199;28;20038;-75
2023/06/03 12:02:37;;;;;;;1.45;0.60;;;;;;;23.15;25.61;101954.34;5025054;28;20053;-74
2023/06/03 12:05:24;;;;;;;2.30;0.90;;;;;;;23.38;24.85;101960.94;5026425;28;20510;-75
2023/06/03 12:08:09;;;;;;;1.75;0.70;;;;;;;23.45;24.92;101961.38;5013946;28;20116;-74
2023/06/03 12:10:55;;;;;;;1.58;0.52;;;;;;;23.46;24.20;101960.41;5006610;28;20152;-74
2023/06/03 12:13:41;;;;;;;1.52;0.70;;;;;;;23.32;23.95;101966.72;5028285;28;20094;-74
2023/06/03 12:16:32;;;;;;;0.77;0.57;;;;;;;23.24;24.04;101961.88;5038828;28;20053;-74
2023/06/03 12:19:18;;;;;;;2.85;0.70;;;;;;;23.07;24.16;101962.06;5023146;28;20485;-75
2023/06/03 12:22:06;;;;;;;1.85;0.95;;;;;;;23.14;24.51;101959.84;5028760;28;20644;-74
2023/06/03 12:24:54;;;;;;;1.92;0.85;;;;;;;23.13;23.70;101964.38;5020966;28;20058;-74
2023/06/03 12:27:40;;;;;;;5.97;0.90;;;;;;;23.08;24.21;101953.91;5020523;28;20912;-74
2023/06/03 12:30:31;;;;;;;2.97;0.80;;;;;;;23.18;25.03;101946.09;5032617;28;20053;-74
2023/06/03 12:33:18;;;;;;;5.82;0.82;;;;;;;23.41;23.98;101957.16;5027337;28;20050;-74
2023/06/03 12:36:03;;;;;;;3.08;0.93;;;;;;;23.52;24.02;101959.13;5013172;28;20046;-75
2023/06/03 12:38:59;;;;;;;1.48;0.80;;;;;;;23.60;23.42;101943.34;5027332;28;20136;-75
2023/06/03 12:41:53;;;;;;;1.73;0.60;;;;;;;23.53;24.74;101953.66;5029045;28;20085;-74
2023/06/03 12:44:52;;;;;;;1.50;0.70;;;;;;;23.75;23.00;101954.88;4997179;28;20041;-74
2023/06/03 12:47:44;;;;;;;3.97;0.65;;;;;;;23.75;22.97;101954.00;5006816;28;20054;-74
2023/06/03 12:50:32;;;;;;;3.10;0.80;;;;;;;23.66;22.88;101956.38;5027381;28;20058;-74
2023/06/03 12:53:18;;;;;;;5.43;0.90;;;;;;;23.69;23.00;101949.91;5028201;28;20893;-74
2023/06/03 12:56:04;;;;;;;1.73;0.80;;;;;;;23.72;23.12;101947.84;5027937;28;20058;-74
2023/06/03 12:58:54;;;;;;;1.65;0.70;;;;;;;23.83;22.41;101954.31;5022507;28;20519;-74
2023/06/03 13:01:42;;;;;;;2.90;0.70;;;;;;;23.93;22.86;101943.78;5023318;28;20042;-74
2023/06/03 13:04:27;;;;;;;2.80;0.80;;;;;;;23.87;22.48;101943.25;5010808;28;20131;-74